sensor_id;sensor_type;location;lat;lon;timestamp;temperature;humidity
33739;DHT22;20063;51.730;11.110;2022-09-27T00:00:36;11.60;99.90
33739;DHT22;20063;51.730;11.110;2022-09-27T00:03:02;11.60;99.90
33739;DHT22;20063;51.730;11.110;2022-09-27T00:05:28;11.60;99.90
33739;DHT22;20063;51.730;11.110;2022-09-27T00:07:54;11.60;99.90
33739;DHT22;20063;51.730;11.110;2022-09-27T00:10:20;11.60;99.90
33739;DHT22;20063;51.730;11.110;2022-09-27T00:12:45;11.60;99.90
33739;DHT22;20063;51.730;11.110;2022-09-27T00:15:19;11.60;99.90
33739;DHT22;20063;51.730;11.110;2022-09-27T00:17:45;11.50;99.90
33739;DHT22;20063;51.730;11.110;2022-09-27T00:20:13;11.50;99.90
33739;DHT22;20063;51.730;11.110;2022-09-27T00:22:39;11.50;99.90
33739;DHT22;20063;51.730;11.110;2022-09-27T00:25:10;11.50;99.90
33739;DHT22;20063;51.730;11.110;2022-09-27T00:27:36;11.50;99.90
33739;DHT22;20063;51.730;11.110;2022-09-27T00:30:02;11.50;99.90
33739;DHT22;20063;51.730;11.110;2022-09-27T00:32:28;11.50;99.90
33739;DHT22;20063;51.730;11.110;2022-09-27T00:34:53;11.50;99.90
33739;DHT22;20063;51.730;11.110;2022-09-27T00:37:19;11.50;99.90
33739;DHT22;20063;51.730;11.110;2022-09-27T00:39:45;11.50;99.90
33739;DHT22;20063;51.730;11.110;2022-09-27T00:42:14;11.50;99.90
33739;DHT22;20063;51.730;11.110;2022-09-27T00:47:26;11.50;99.90
33739;DHT22;20063;51.730;11.110;2022-09-27T00:49:57;11.50;99.90
33739;DHT22;20063;51.730;11.110;2022-09-27T00:52:37;11.50;99.90
33739;DHT22;20063;51.730;11.110;2022-09-27T00:55:16;11.50;99.90
33739;DHT22;20063;51.730;11.110;2022-09-27T00:57:44;11.50;99.90
33739;DHT22;20063;51.730;11.110;2022-09-27T01:00:14;11.50;99.90
33739;DHT22;20063;51.730;11.110;2022-09-27T01:02:43;11.50;99.90
33739;DHT22;20063;51.730;11.110;2022-09-27T01:05:21;11.40;99.90
33739;DHT22;20063;51.730;11.110;2022-09-27T01:07:47;11.40;99.90
33739;DHT22;20063;51.730;11.110;2022-09-27T01:10:15;11.40;99.90
33739;DHT22;20063;51.730;11.110;2022-09-27T01:13:22;11.40;99.90
33739;DHT22;20063;51.730;11.110;2022-09-27T01:16:14;11.40;99.90
33739;DHT22;20063;51.730;11.110;2022-09-27T01:18:37;11.40;99.90
33739;DHT22;20063;51.730;11.110;2022-09-27T01:29:11;11.40;99.90
33739;DHT22;20063;51.730;11.110;2022-09-27T01:32:00;11.40;99.90
33739;DHT22;20063;51.730;11.110;2022-09-27T01:34:47;11.40;99.90
33739;DHT22;20063;51.730;11.110;2022-09-27T01:43:35;11.30;99.90
33739;DHT22;20063;51.730;11.110;2022-09-27T01:46:21;11.30;99.90
33739;DHT22;20063;51.730;11.110;2022-09-27T01:48:49;11.30;99.90
33739;DHT22;20063;51.730;11.110;2022-09-27T01:51:32;11.30;99.90
33739;DHT22;20063;51.730;11.110;2022-09-27T01:54:01;11.30;99.90
33739;DHT22;20063;51.730;11.110;2022-09-27T01:56:52;11.30;99.90
33739;DHT22;20063;51.730;11.110;2022-09-27T01:59:28;11.30;99.90
33739;DHT22;20063;51.730;11.110;2022-09-27T02:01:58;11.30;99.90
33739;DHT22;20063;51.730;11.110;2022-09-27T02:04:29;11.30;99.90
33739;DHT22;20063;51.730;11.110;2022-09-27T02:07:01;11.30;99.90
33739;DHT22;20063;51.730;11.110;2022-09-27T02:09:30;11.30;99.90
33739;DHT22;20063;51.730;11.110;2022-09-27T02:12:02;11.30;99.90
33739;DHT22;20063;51.730;11.110;2022-09-27T02:14:44;11.30;99.90
33739;DHT22;20063;51.730;11.110;2022-09-27T02:17:20;11.30;99.90
33739;DHT22;20063;51.730;11.110;2022-09-27T02:20:10;11.30;99.90
33739;DHT22;20063;51.730;11.110;2022-09-27T02:22:43;11.30;99.90
33739;DHT22;20063;51.730;11.110;2022-09-27T02:25:18;11.30;99.90
33739;DHT22;20063;51.730;11.110;2022-09-27T02:27:58;11.30;99.90
33739;DHT22;20063;51.730;11.110;2022-09-27T02:30:25;11.30;99.90
33739;DHT22;20063;51.730;11.110;2022-09-27T02:32:52;11.30;99.90
33739;DHT22;20063;51.730;11.110;2022-09-27T02:35:47;11.30;99.90
33739;DHT22;20063;51.730;11.110;2022-09-27T02:38:19;11.30;99.90
33739;DHT22;20063;51.730;11.110;2022-09-27T02:40:46;11.40;99.90
33739;DHT22;20063;51.730;11.110;2022-09-27T02:43:23;11.40;99.90
33739;DHT22;20063;51.730;11.110;2022-09-27T02:49:00;11.40;99.90
33739;DHT22;20063;51.730;11.110;2022-09-27T02:57:17;11.30;99.90
33739;DHT22;20063;51.730;11.110;2022-09-27T03:00:05;11.30;99.90
33739;DHT22;20063;51.730;11.110;2022-09-27T03:05:32;11.30;99.90
33739;DHT22;20063;51.730;11.110;2022-09-27T03:07:58;11.30;99.90
33739;DHT22;20063;51.730;11.110;2022-09-27T03:10:26;11.20;99.90
33739;DHT22;20063;51.730;11.110;2022-09-27T03:12:54;11.30;99.90
33739;DHT22;20063;51.730;11.110;2022-09-27T03:15:26;11.30;99.90
33739;DHT22;20063;51.730;11.110;2022-09-27T03:17:51;11.30;99.90
33739;DHT22;20063;51.730;11.110;2022-09-27T03:20:17;11.30;99.90
33739;DHT22;20063;51.730;11.110;2022-09-27T03:22:42;11.30;99.90
33739;DHT22;20063;51.730;11.110;2022-09-27T03:25:08;11.30;99.90
33739;DHT22;20063;51.730;11.110;2022-09-27T03:27:34;11.30;99.90
33739;DHT22;20063;51.730;11.110;2022-09-27T03:30:00;11.30;99.90
33739;DHT22;20063;51.730;11.110;2022-09-27T03:32:53;11.30;99.90
33739;DHT22;20063;51.730;11.110;2022-09-27T03:35:20;11.30;99.90
33739;DHT22;20063;51.730;11.110;2022-09-27T03:37:46;11.30;99.90
33739;DHT22;20063;51.730;11.110;2022-09-27T03:40:12;11.40;99.90
33739;DHT22;20063;51.730;11.110;2022-09-27T03:42:38;11.30;99.90
33739;DHT22;20063;51.730;11.110;2022-09-27T03:45:04;11.30;99.90
33739;DHT22;20063;51.730;11.110;2022-09-27T03:47:30;11.30;99.90
33739;DHT22;20063;51.730;11.110;2022-09-27T03:49:55;11.30;99.90
33739;DHT22;20063;51.730;11.110;2022-09-27T03:52:21;11.30;99.90
33739;DHT22;20063;51.730;11.110;2022-09-27T03:54:46;11.30;99.90
33739;DHT22;20063;51.730;11.110;2022-09-27T03:57:13;11.30;99.90
33739;DHT22;20063;51.730;11.110;2022-09-27T03:59:38;11.30;99.90
33739;DHT22;20063;51.730;11.110;2022-09-27T04:02:04;11.30;99.90
33739;DHT22;20063;51.730;11.110;2022-09-27T04:04:29;11.30;99.90
33739;DHT22;20063;51.730;11.110;2022-09-27T04:06:55;11.30;99.90
33739;DHT22;20063;51.730;11.110;2022-09-27T04:09:23;11.40;99.90
33739;DHT22;20063;51.730;11.110;2022-09-27T04:11:49;11.40;99.90
33739;DHT22;20063;51.730;11.110;2022-09-27T04:14:17;11.40;99.90
33739;DHT22;20063;51.730;11.110;2022-09-27T04:16:43;11.40;99.90
33739;DHT22;20063;51.730;11.110;2022-09-27T04:19:08;11.30;99.90
33739;DHT22;20063;51.730;11.110;2022-09-27T04:21:35;11.40;99.90
33739;DHT22;20063;51.730;11.110;2022-09-27T04:24:00;11.30;99.90
33739;DHT22;20063;51.730;11.110;2022-09-27T04:26:26;11.30;99.90
33739;DHT22;20063;51.730;11.110;2022-09-27T04:28:52;11.30;99.90
33739;DHT22;20063;51.730;11.110;2022-09-27T04:31:24;11.30;99.90
33739;DHT22;20063;51.730;11.110;2022-09-27T04:33:49;11.30;99.90
33739;DHT22;20063;51.730;11.110;2022-09-27T04:36:22;11.30;99.90
33739;DHT22;20063;51.730;11.110;2022-09-27T04:38:55;11.30;99.90
33739;DHT22;20063;51.730;11.110;2022-09-27T04:41:30;11.30;99.90
33739;DHT22;20063;51.730;11.110;2022-09-27T04:43:57;11.30;99.90
33739;DHT22;20063;51.730;11.110;2022-09-27T04:46:25;11.40;99.90
33739;DHT22;20063;51.730;11.110;2022-09-27T04:48:54;11.40;99.90
33739;DHT22;20063;51.730;11.110;2022-09-27T04:51:19;11.30;99.90
33739;DHT22;20063;51.730;11.110;2022-09-27T04:53:45;11.30;99.90
33739;DHT22;20063;51.730;11.110;2022-09-27T04:56:12;11.30;99.90
33739;DHT22;20063;51.730;11.110;2022-09-27T04:58:38;11.20;99.90
33739;DHT22;20063;51.730;11.110;2022-09-27T05:01:05;11.20;99.90
33739;DHT22;20063;51.730;11.110;2022-09-27T05:03:31;11.30;99.90
33739;DHT22;20063;51.730;11.110;2022-09-27T05:05:57;11.30;99.90
33739;DHT22;20063;51.730;11.110;2022-09-27T05:08:29;11.20;99.90
33739;DHT22;20063;51.730;11.110;2022-09-27T05:10:55;11.30;99.90
33739;DHT22;20063;51.730;11.110;2022-09-27T05:13:27;11.20;99.90
33739;DHT22;20063;51.730;11.110;2022-09-27T05:15:52;11.20;99.90
33739;DHT22;20063;51.730;11.110;2022-09-27T05:18:27;11.20;99.90
33739;DHT22;20063;51.730;11.110;2022-09-27T05:20:52;11.20;99.90
33739;DHT22;20063;51.730;11.110;2022-09-27T05:23:18;11.20;99.90
33739;DHT22;20063;51.730;11.110;2022-09-27T05:25:44;11.20;99.90
33739;DHT22;20063;51.730;11.110;2022-09-27T05:28:10;11.20;99.90
33739;DHT22;20063;51.730;11.110;2022-09-27T05:30:35;11.20;99.90
33739;DHT22;20063;51.730;11.110;2022-09-27T05:33:01;11.20;99.90
33739;DHT22;20063;51.730;11.110;2022-09-27T05:35:26;11.10;99.90
33739;DHT22;20063;51.730;11.110;2022-09-27T05:37:58;11.20;99.90
33739;DHT22;20063;51.730;11.110;2022-09-27T05:40:30;11.10;99.90
33739;DHT22;20063;51.730;11.110;2022-09-27T05:42:56;11.10;99.90
33739;DHT22;20063;51.730;11.110;2022-09-27T05:45:27;11.10;99.90
33739;DHT22;20063;51.730;11.110;2022-09-27T05:47:57;11.10;99.90
33739;DHT22;20063;51.730;11.110;2022-09-27T05:50:24;11.10;99.90
33739;DHT22;20063;51.730;11.110;2022-09-27T05:52:50;11.10;99.90
33739;DHT22;20063;51.730;11.110;2022-09-27T05:55:16;11.10;99.90
33739;DHT22;20063;51.730;11.110;2022-09-27T05:57:51;11.20;99.90
33739;DHT22;20063;51.730;11.110;2022-09-27T06:00:24;11.20;99.90
33739;DHT22;20063;51.730;11.110;2022-09-27T06:02:54;11.20;99.90
33739;DHT22;20063;51.730;11.110;2022-09-27T06:05:28;11.20;99.90
33739;DHT22;20063;51.730;11.110;2022-09-27T06:07:59;11.20;99.90
33739;DHT22;20063;51.730;11.110;2022-09-27T06:10:32;11.20;99.90
33739;DHT22;20063;51.730;11.110;2022-09-27T06:13:09;11.30;99.90
33739;DHT22;20063;51.730;11.110;2022-09-27T06:15:36;11.40;99.90
33739;DHT22;20063;51.730;11.110;2022-09-27T06:18:09;11.30;99.90
33739;DHT22;20063;51.730;11.110;2022-09-27T06:20:36;11.40;99.90
33739;DHT22;20063;51.730;11.110;2022-09-27T06:23:16;11.40;99.90
33739;DHT22;20063;51.730;11.110;2022-09-27T06:25:43;11.40;99.90
33739;DHT22;20063;51.730;11.110;2022-09-27T06:28:09;11.50;99.90
33739;DHT22;20063;51.730;11.110;2022-09-27T06:30:46;11.50;99.90
33739;DHT22;20063;51.730;11.110;2022-09-27T06:33:14;11.50;99.90
33739;DHT22;20063;51.730;11.110;2022-09-27T06:35:40;11.50;99.90
33739;DHT22;20063;51.730;11.110;2022-09-27T06:38:11;11.60;99.90
33739;DHT22;20063;51.730;11.110;2022-09-27T06:40:38;11.60;99.90
33739;DHT22;20063;51.730;11.110;2022-09-27T06:43:05;11.60;99.90
33739;DHT22;20063;51.730;11.110;2022-09-27T06:45:32;11.60;99.90
33739;DHT22;20063;51.730;11.110;2022-09-27T06:48:00;11.70;99.90
33739;DHT22;20063;51.730;11.110;2022-09-27T06:50:27;11.70;99.90
33739;DHT22;20063;51.730;11.110;2022-09-27T06:52:54;11.70;99.90
33739;DHT22;20063;51.730;11.110;2022-09-27T06:55:23;11.60;99.90
33739;DHT22;20063;51.730;11.110;2022-09-27T06:57:52;11.60;99.90
33739;DHT22;20063;51.730;11.110;2022-09-27T07:00:36;11.60;99.90
33739;DHT22;20063;51.730;11.110;2022-09-27T07:03:01;11.50;99.90
33739;DHT22;20063;51.730;11.110;2022-09-27T07:05:33;11.40;99.90
33739;DHT22;20063;51.730;11.110;2022-09-27T07:07:58;11.40;99.90
33739;DHT22;20063;51.730;11.110;2022-09-27T07:10:29;11.30;99.90
33739;DHT22;20063;51.730;11.110;2022-09-27T07:13:05;11.20;99.90
33739;DHT22;20063;51.730;11.110;2022-09-27T07:15:36;11.20;99.90
33739;DHT22;20063;51.730;11.110;2022-09-27T07:18:03;11.10;99.90
33739;DHT22;20063;51.730;11.110;2022-09-27T07:20:29;11.10;99.90
33739;DHT22;20063;51.730;11.110;2022-09-27T07:22:56;11.10;99.90
33739;DHT22;20063;51.730;11.110;2022-09-27T07:25:27;10.90;99.90
33739;DHT22;20063;51.730;11.110;2022-09-27T07:27:53;10.90;99.90
33739;DHT22;20063;51.730;11.110;2022-09-27T07:30:19;10.80;99.90
33739;DHT22;20063;51.730;11.110;2022-09-27T07:32:46;10.70;99.90
33739;DHT22;20063;51.730;11.110;2022-09-27T07:35:12;10.70;99.90
33739;DHT22;20063;51.730;11.110;2022-09-27T07:37:41;10.60;99.90
33739;DHT22;20063;51.730;11.110;2022-09-27T07:40:08;10.60;99.90
33739;DHT22;20063;51.730;11.110;2022-09-27T07:42:37;10.50;99.90
33739;DHT22;20063;51.730;11.110;2022-09-27T07:45:07;10.50;99.90
33739;DHT22;20063;51.730;11.110;2022-09-27T07:47:33;10.50;99.90
33739;DHT22;20063;51.730;11.110;2022-09-27T07:49:59;10.50;99.90
33739;DHT22;20063;51.730;11.110;2022-09-27T07:52:27;10.50;99.90
33739;DHT22;20063;51.730;11.110;2022-09-27T07:54:53;10.50;99.90
33739;DHT22;20063;51.730;11.110;2022-09-27T07:57:21;10.50;99.90
33739;DHT22;20063;51.730;11.110;2022-09-27T07:59:47;10.40;99.90
33739;DHT22;20063;51.730;11.110;2022-09-27T08:02:14;10.50;99.90
33739;DHT22;20063;51.730;11.110;2022-09-27T08:04:40;10.40;99.90
33739;DHT22;20063;51.730;11.110;2022-09-27T08:07:08;10.30;99.90
33739;DHT22;20063;51.730;11.110;2022-09-27T08:09:33;10.40;99.90
33739;DHT22;20063;51.730;11.110;2022-09-27T08:11:59;10.30;99.90
33739;DHT22;20063;51.730;11.110;2022-09-27T08:14:31;10.30;99.90
33739;DHT22;20063;51.730;11.110;2022-09-27T08:16:56;10.30;99.90
33739;DHT22;20063;51.730;11.110;2022-09-27T08:19:22;10.30;99.90
33739;DHT22;20063;51.730;11.110;2022-09-27T08:21:50;10.40;99.90
33739;DHT22;20063;51.730;11.110;2022-09-27T08:24:16;10.30;99.90
33739;DHT22;20063;51.730;11.110;2022-09-27T08:26:41;10.30;99.90
33739;DHT22;20063;51.730;11.110;2022-09-27T08:29:07;10.30;99.90
33739;DHT22;20063;51.730;11.110;2022-09-27T08:31:33;10.30;99.90
33739;DHT22;20063;51.730;11.110;2022-09-27T08:33:59;10.30;99.90
33739;DHT22;20063;51.730;11.110;2022-09-27T08:36:25;10.40;99.90
33739;DHT22;20063;51.730;11.110;2022-09-27T08:38:50;10.40;99.90
33739;DHT22;20063;51.730;11.110;2022-09-27T08:47:28;10.40;99.90
33739;DHT22;20063;51.730;11.110;2022-09-27T08:55:35;10.50;99.90
33739;DHT22;20063;51.730;11.110;2022-09-27T08:58:08;10.50;99.90
33739;DHT22;20063;51.730;11.110;2022-09-27T09:00:35;10.50;99.90
33739;DHT22;20063;51.730;11.110;2022-09-27T09:03:01;10.50;99.90
33739;DHT22;20063;51.730;11.110;2022-09-27T09:05:32;10.60;99.90
33739;DHT22;20063;51.730;11.110;2022-09-27T09:08:17;10.50;99.90
33739;DHT22;20063;51.730;11.110;2022-09-27T09:16:57;10.60;99.90
33739;DHT22;20063;51.730;11.110;2022-09-27T09:38:46;10.50;99.90
33739;DHT22;20063;51.730;11.110;2022-09-27T09:41:53;10.50;99.90
33739;DHT22;20063;51.730;11.110;2022-09-27T09:44:41;10.50;99.90
33739;DHT22;20063;51.730;11.110;2022-09-27T09:47:47;10.50;99.90
33739;DHT22;20063;51.730;11.110;2022-09-27T09:50:19;10.50;99.90
33739;DHT22;20063;51.730;11.110;2022-09-27T09:52:59;10.50;99.90
33739;DHT22;20063;51.730;11.110;2022-09-27T09:55:34;10.50;99.90
33739;DHT22;20063;51.730;11.110;2022-09-27T10:00:39;10.40;99.90
33739;DHT22;20063;51.730;11.110;2022-09-27T10:03:05;10.40;99.90
33739;DHT22;20063;51.730;11.110;2022-09-27T10:05:31;10.40;99.90
33739;DHT22;20063;51.730;11.110;2022-09-27T10:07:59;10.50;99.90
33739;DHT22;20063;51.730;11.110;2022-09-27T10:10:27;10.50;99.90
33739;DHT22;20063;51.730;11.110;2022-09-27T10:12:54;10.60;99.90
33739;DHT22;20063;51.730;11.110;2022-09-27T10:15:25;10.80;99.90
33739;DHT22;20063;51.730;11.110;2022-09-27T10:17:57;10.90;99.90
33739;DHT22;20063;51.730;11.110;2022-09-27T10:20:42;11.10;99.90
33739;DHT22;20063;51.730;11.110;2022-09-27T10:23:15;11.20;99.90
33739;DHT22;20063;51.730;11.110;2022-09-27T10:25:55;11.30;99.90
33739;DHT22;20063;51.730;11.110;2022-09-27T10:31:15;11.50;99.90
33739;DHT22;20063;51.730;11.110;2022-09-27T10:33:54;11.60;99.90
33739;DHT22;20063;51.730;11.110;2022-09-27T10:36:32;11.60;99.90
33739;DHT22;20063;51.730;11.110;2022-09-27T10:39:02;11.60;99.90
33739;DHT22;20063;51.730;11.110;2022-09-27T10:41:37;11.60;99.90
33739;DHT22;20063;51.730;11.110;2022-09-27T10:46:43;11.70;99.90
33739;DHT22;20063;51.730;11.110;2022-09-27T10:49:27;11.70;99.90
33739;DHT22;20063;51.730;11.110;2022-09-27T10:51:59;11.80;99.90
33739;DHT22;20063;51.730;11.110;2022-09-27T10:54:31;11.80;99.90
33739;DHT22;20063;51.730;11.110;2022-09-27T10:57:00;11.90;99.90
33739;DHT22;20063;51.730;11.110;2022-09-27T10:59:41;12.00;99.90
33739;DHT22;20063;51.730;11.110;2022-09-27T11:02:22;12.00;99.90
33739;DHT22;20063;51.730;11.110;2022-09-27T11:05:09;12.10;99.90
33739;DHT22;20063;51.730;11.110;2022-09-27T11:07:46;12.20;99.90
33739;DHT22;20063;51.730;11.110;2022-09-27T11:10:35;12.30;99.90
33739;DHT22;20063;51.730;11.110;2022-09-27T11:15:52;12.30;99.90
33739;DHT22;20063;51.730;11.110;2022-09-27T11:30:09;12.80;99.90
33739;DHT22;20063;51.730;11.110;2022-09-27T11:33:02;13.00;99.90
33739;DHT22;20063;51.730;11.110;2022-09-27T11:38:29;12.90;99.90
33739;DHT22;20063;51.730;11.110;2022-09-27T11:41:22;12.90;99.90
33739;DHT22;20063;51.730;11.110;2022-09-27T11:52:40;12.80;99.90
33739;DHT22;20063;51.730;11.110;2022-09-27T11:55:19;12.70;99.90
33739;DHT22;20063;51.730;11.110;2022-09-27T12:06:40;12.70;99.90
33739;DHT22;20063;51.730;11.110;2022-09-27T12:09:17;12.70;99.90
33739;DHT22;20063;51.730;11.110;2022-09-27T12:11:52;12.60;99.90
33739;DHT22;20063;51.730;11.110;2022-09-27T12:17:26;12.50;99.90
33739;DHT22;20063;51.730;11.110;2022-09-27T12:19:56;12.40;99.90
33739;DHT22;20063;51.730;11.110;2022-09-27T12:22:37;12.50;99.90
33739;DHT22;20063;51.730;11.110;2022-09-27T12:25:04;12.50;99.90
33739;DHT22;20063;51.730;11.110;2022-09-27T12:28:07;12.50;99.90
33739;DHT22;20063;51.730;11.110;2022-09-27T12:30:25;12.70;99.90
33739;DHT22;20063;51.730;11.110;2022-09-27T12:35:35;12.90;99.90
33739;DHT22;20063;51.730;11.110;2022-09-27T12:40:55;13.20;99.90
33739;DHT22;20063;51.730;11.110;2022-09-27T12:43:25;13.20;99.90
33739;DHT22;20063;51.730;11.110;2022-09-27T12:46:24;13.10;99.90
33739;DHT22;20063;51.730;11.110;2022-09-27T12:49:13;13.10;99.90
33739;DHT22;20063;51.730;11.110;2022-09-27T12:51:48;13.00;99.90
33739;DHT22;20063;51.730;11.110;2022-09-27T13:00:14;12.90;99.90
33739;DHT22;20063;51.730;11.110;2022-09-27T13:11:35;13.30;99.90
33739;DHT22;20063;51.730;11.110;2022-09-27T13:14:04;13.20;99.90
33739;DHT22;20063;51.730;11.110;2022-09-27T13:16:43;13.10;99.90
33739;DHT22;20063;51.730;11.110;2022-09-27T13:19:41;13.00;99.90
33739;DHT22;20063;51.730;11.110;2022-09-27T13:24:51;12.70;99.90
33739;DHT22;20063;51.730;11.110;2022-09-27T13:27:37;12.50;99.90
33739;DHT22;20063;51.730;11.110;2022-09-27T13:32:32;12.40;99.90
33739;DHT22;20063;51.730;11.110;2022-09-27T13:35:20;12.30;99.90
33739;DHT22;20063;51.730;11.110;2022-09-27T13:37:47;12.30;99.90
33739;DHT22;20063;51.730;11.110;2022-09-27T13:40:38;12.30;99.90
33739;DHT22;20063;51.730;11.110;2022-09-27T13:46:03;12.10;99.90
33739;DHT22;20063;51.730;11.110;2022-09-27T13:48:54;12.10;99.90
33739;DHT22;20063;51.730;11.110;2022-09-27T13:51:55;12.00;99.90
33739;DHT22;20063;51.730;11.110;2022-09-27T13:54:59;12.00;99.90
33739;DHT22;20063;51.730;11.110;2022-09-27T14:00:10;12.10;99.90
33739;DHT22;20063;51.730;11.110;2022-09-27T14:02:52;12.10;99.90
33739;DHT22;20063;51.730;11.110;2022-09-27T14:05:22;12.30;99.90
33739;DHT22;20063;51.730;11.110;2022-09-27T14:07:51;12.40;99.90
33739;DHT22;20063;51.730;11.110;2022-09-27T14:10:18;12.70;99.90
33739;DHT22;20063;51.730;11.110;2022-09-27T14:12:48;12.80;99.90
33739;DHT22;20063;51.730;11.110;2022-09-27T14:15:26;12.80;99.90
33739;DHT22;20063;51.730;11.110;2022-09-27T14:17:53;12.80;99.90
33739;DHT22;20063;51.730;11.110;2022-09-27T14:22:58;12.80;99.90
33739;DHT22;20063;51.730;11.110;2022-09-27T14:25:24;12.80;99.90
33739;DHT22;20063;51.730;11.110;2022-09-27T14:27:50;12.70;99.90
33739;DHT22;20063;51.730;11.110;2022-09-27T14:30:22;12.70;99.90
33739;DHT22;20063;51.730;11.110;2022-09-27T14:32:50;12.60;99.90
33739;DHT22;20063;51.730;11.110;2022-09-27T14:35:19;12.40;99.90
33739;DHT22;20063;51.730;11.110;2022-09-27T14:38:05;12.30;99.90
33739;DHT22;20063;51.730;11.110;2022-09-27T14:40:44;12.20;99.90
33739;DHT22;20063;51.730;11.110;2022-09-27T14:43:19;12.10;99.90
33739;DHT22;20063;51.730;11.110;2022-09-27T14:45:51;12.00;99.90
33739;DHT22;20063;51.730;11.110;2022-09-27T14:51:00;11.90;99.90
33739;DHT22;20063;51.730;11.110;2022-09-27T14:53:30;11.90;99.90
33739;DHT22;20063;51.730;11.110;2022-09-27T14:55:57;11.80;99.90
33739;DHT22;20063;51.730;11.110;2022-09-27T14:58:23;11.80;99.90
33739;DHT22;20063;51.730;11.110;2022-09-27T15:00:54;11.80;99.90
33739;DHT22;20063;51.730;11.110;2022-09-27T15:03:30;11.70;99.90
33739;DHT22;20063;51.730;11.110;2022-09-27T15:05:59;11.70;99.90
33739;DHT22;20063;51.730;11.110;2022-09-27T15:08:27;11.60;99.90
33739;DHT22;20063;51.730;11.110;2022-09-27T15:11:02;11.60;99.90
33739;DHT22;20063;51.730;11.110;2022-09-27T15:13:31;11.60;99.90
33739;DHT22;20063;51.730;11.110;2022-09-27T15:15:57;11.60;99.90
33739;DHT22;20063;51.730;11.110;2022-09-27T15:18:39;11.50;99.90
33739;DHT22;20063;51.730;11.110;2022-09-27T15:21:07;11.50;99.90
33739;DHT22;20063;51.730;11.110;2022-09-27T15:23:42;11.60;99.90
33739;DHT22;20063;51.730;11.110;2022-09-27T15:26:18;11.60;99.90
33739;DHT22;20063;51.730;11.110;2022-09-27T15:28:50;11.70;99.90
33739;DHT22;20063;51.730;11.110;2022-09-27T15:31:32;11.60;99.90
33739;DHT22;20063;51.730;11.110;2022-09-27T15:33:59;11.60;99.90
33739;DHT22;20063;51.730;11.110;2022-09-27T15:39:16;11.70;99.90
33739;DHT22;20063;51.730;11.110;2022-09-27T15:42:07;11.70;99.90
33739;DHT22;20063;51.730;11.110;2022-09-27T15:44:52;11.70;99.90
33739;DHT22;20063;51.730;11.110;2022-09-27T15:52:52;11.70;99.90
33739;DHT22;20063;51.730;11.110;2022-09-27T15:55:23;11.60;99.90
33739;DHT22;20063;51.730;11.110;2022-09-27T15:58:04;11.60;99.90
33739;DHT22;20063;51.730;11.110;2022-09-27T16:00:30;11.50;99.90
33739;DHT22;20063;51.730;11.110;2022-09-27T16:02:59;11.40;99.90
33739;DHT22;20063;51.730;11.110;2022-09-27T16:05:25;11.40;99.90
33739;DHT22;20063;51.730;11.110;2022-09-27T16:07:54;11.30;99.90
33739;DHT22;20063;51.730;11.110;2022-09-27T16:10:27;11.30;99.90
33739;DHT22;20063;51.730;11.110;2022-09-27T16:12:55;11.20;99.90
33739;DHT22;20063;51.730;11.110;2022-09-27T16:15:20;11.20;99.90
33739;DHT22;20063;51.730;11.110;2022-09-27T16:17:46;11.20;99.90
33739;DHT22;20063;51.730;11.110;2022-09-27T16:20:23;11.20;99.90
33739;DHT22;20063;51.730;11.110;2022-09-27T16:22:51;11.20;99.90
33739;DHT22;20063;51.730;11.110;2022-09-27T16:25:17;11.20;99.90
33739;DHT22;20063;51.730;11.110;2022-09-27T16:27:44;11.10;99.90
33739;DHT22;20063;51.730;11.110;2022-09-27T16:30:10;11.10;99.90
33739;DHT22;20063;51.730;11.110;2022-09-27T16:32:44;11.10;99.90
33739;DHT22;20063;51.730;11.110;2022-09-27T16:35:16;11.10;99.90
33739;DHT22;20063;51.730;11.110;2022-09-27T16:37:49;11.10;99.90
33739;DHT22;20063;51.730;11.110;2022-09-27T16:40:16;11.10;99.90
33739;DHT22;20063;51.730;11.110;2022-09-27T16:42:47;11.10;99.90
33739;DHT22;20063;51.730;11.110;2022-09-27T16:45:13;11.10;99.90
33739;DHT22;20063;51.730;11.110;2022-09-27T16:47:47;11.00;99.90
33739;DHT22;20063;51.730;11.110;2022-09-27T16:50:14;11.00;99.90
33739;DHT22;20063;51.730;11.110;2022-09-27T16:52:58;11.00;99.90
33739;DHT22;20063;51.730;11.110;2022-09-27T16:55:25;11.00;99.90
33739;DHT22;20063;51.730;11.110;2022-09-27T16:57:53;10.90;99.90
33739;DHT22;20063;51.730;11.110;2022-09-27T17:00:19;10.90;99.90
33739;DHT22;20063;51.730;11.110;2022-09-27T17:02:47;10.90;99.90
33739;DHT22;20063;51.730;11.110;2022-09-27T17:05:16;10.90;99.90
33739;DHT22;20063;51.730;11.110;2022-09-27T17:07:49;10.80;99.90
33739;DHT22;20063;51.730;11.110;2022-09-27T17:10:15;10.80;99.90
33739;DHT22;20063;51.730;11.110;2022-09-27T17:12:44;10.70;99.90
33739;DHT22;20063;51.730;11.110;2022-09-27T17:15:12;10.70;99.90
33739;DHT22;20063;51.730;11.110;2022-09-27T17:17:41;10.70;99.90
33739;DHT22;20063;51.730;11.110;2022-09-27T17:20:06;10.70;99.90
33739;DHT22;20063;51.730;11.110;2022-09-27T17:22:32;10.70;99.90
33739;DHT22;20063;51.730;11.110;2022-09-27T17:24:57;10.70;99.90
33739;DHT22;20063;51.730;11.110;2022-09-27T17:27:25;10.80;99.90
33739;DHT22;20063;51.730;11.110;2022-09-27T17:29:53;10.70;99.90
33739;DHT22;20063;51.730;11.110;2022-09-27T17:32:20;10.60;99.90
33739;DHT22;20063;51.730;11.110;2022-09-27T17:34:46;10.60;99.90
33739;DHT22;20063;51.730;11.110;2022-09-27T17:37:12;10.60;99.90
33739;DHT22;20063;51.730;11.110;2022-09-27T17:39:38;10.50;99.90
33739;DHT22;20063;51.730;11.110;2022-09-27T17:42:04;10.50;99.90
33739;DHT22;20063;51.730;11.110;2022-09-27T17:44:30;10.50;99.90
33739;DHT22;20063;51.730;11.110;2022-09-27T17:46:56;10.50;99.90
33739;DHT22;20063;51.730;11.110;2022-09-27T17:49:40;10.40;99.90
33739;DHT22;20063;51.730;11.110;2022-09-27T17:52:25;10.40;99.90
33739;DHT22;20063;51.730;11.110;2022-09-27T17:54:51;10.40;99.90
33739;DHT22;20063;51.730;11.110;2022-09-27T17:57:20;10.30;99.90
33739;DHT22;20063;51.730;11.110;2022-09-27T17:59:46;10.30;99.90
33739;DHT22;20063;51.730;11.110;2022-09-27T18:02:11;10.30;99.90
33739;DHT22;20063;51.730;11.110;2022-09-27T18:04:40;10.20;99.90
33739;DHT22;20063;51.730;11.110;2022-09-27T18:07:05;10.20;99.90
33739;DHT22;20063;51.730;11.110;2022-09-27T18:09:31;10.20;99.90
33739;DHT22;20063;51.730;11.110;2022-09-27T18:11:58;10.20;99.90
33739;DHT22;20063;51.730;11.110;2022-09-27T18:14:24;10.20;99.90
33739;DHT22;20063;51.730;11.110;2022-09-27T18:16:51;10.30;99.90